Flight Track Log - Related Links

Times and Time Zones

All times are in EDT time to prevent confusion due to time zone crossing. See the AAY855 flight status page for this flight to view local times or setup timezone preferences in your user account.

Time Position Orientation Groundspeed Altitude Reporting Facility
EDT Latitude Longitude Course Direction KTS MPH feet Rate Location/Type
Sun 09:24:28 AM 41.6522 -86.3481 131° Southeast 233 268 3,900  Level Chicago Center
Sun 09:25:29 AM 41.6064 -86.2667 127° Southeast 273 314 6,600 2,607 Climbing Chicago Center
Sun 09:26:30 AM 41.5569 -86.1781 127° Southeast 295 339 9,200 2,293 Climbing Chicago Center
Sun 09:27:32 AM 41.4906 -86.0619 127° Southeast 329 379 11,300 1,707 Climbing Chicago Center
Sun 09:28:33 AM 41.4167 -85.9525 132° Southeast 399 459 12,700 1,756 Climbing Chicago Center
Sun 09:29:00 AM 41.2619 -85.6257 131° Southeast  Level FlightAware Approximate
Sun 09:29:35 AM 41.3328 -85.8433 136° Southeast 423 487 14,900  Level Chicago Center
Sun 09:30:36 AM 41.2467 -85.7308 135° Southeast 437 503 17,100 1,902 Climbing Chicago Center
Sun 09:31:38 AM 41.1531 -85.6219 139° Southeast 448 516 18,800 1,659 Climbing Chicago Center
Sun 09:32:39 AM 41.0539 -85.5147 141° Southeast 461 531 20,500 1,659 Climbing Chicago Center
Sun 09:33:41 AM 40.9519 -85.4058 141° Southeast 471 542 22,200 1,610 Climbing Chicago Center
Sun 09:34:42 AM 40.8247 -85.2708 141° Southeast 489 563 23,800 1,463 Climbing Chicago Center
Sun 09:35:44 AM 40.7017 -85.2022 157° South 488 562 25,200 1,463 Climbing Chicago Center
Sun 09:36:45 AM 40.5803 -85.1550 164° South 489 563 26,800 1,527 Climbing Chicago Center
Sun 09:37:34 AM 40.4761 -85.1081 161° South 492 566 28,000 1,255 Climbing Indianapolis Center
Sun 09:38:35 AM 40.3481 -85.0506 161° South 490 564 29,100 1,024 Climbing Indianapolis Center
Sun 09:39:37 AM 40.2178 -84.9928 161° South 490 564 30,100 1,171 Climbing Indianapolis Center
Sun 09:40:38 AM 40.0619 -84.9228 161° South 490 564 31,500 1,317 Climbing Indianapolis Center
Sun 09:41:40 AM 39.9450 -84.8719 162° South 490 564 32,800 726 Climbing Indianapolis Center
Sun 09:42:42 AM 39.8244 -84.8183 161° South 474 545 33,000 98 Climbing Indianapolis Center
Sun 09:43:43 AM 39.7042 -84.7644 161° South 465 535 33,000  Level Indianapolis Center
Sun 09:44:45 AM 39.5569 -84.7011 162° South 465 535 33,000  Level Indianapolis Center
Sun 09:45:47 AM 39.4356 -84.6469 161° South 465 535 33,000  Level Indianapolis Center
Sun 09:46:48 AM 39.3119 -84.5936 162° South 466 536 33,000  Level Indianapolis Center
Sun 09:47:50 AM 39.1892 -84.5403 161° South 466 536 33,000  Level Indianapolis Center
Sun 09:48:51 AM 39.0669 -84.4894 162° South 466 536 33,000  Level Indianapolis Center
Sun 09:49:53 AM 38.9439 -84.4361 161° South 466 536 33,000  Level Indianapolis Center
Sun 09:50:55 AM 38.8025 -84.3731 161° South 456 525 33,000  Level Indianapolis Center
Sun 09:51:56 AM 38.6800 -84.3167 160° South 463 533 33,000  Level Indianapolis Center
Sun 09:52:58 AM 38.5639 -84.2647 161° South 465 535 33,000  Level Indianapolis Center
Sun 09:53:59 AM 38.4383 -84.2467 174° South 455 524 33,000  Level Indianapolis Center
Sun 09:55:01 AM 38.2958 -84.2269 174° South 447 514 33,000  Level Indianapolis Center
Sun 09:56:03 AM 38.1733 -84.2092 173° South 446 513 33,000  Level Indianapolis Center
Sun 09:57:04 AM 38.0539 -84.1886 172° South 436 502 33,000  Level Indianapolis Center
Sun 09:58:06 AM 37.9311 -84.1747 175° South 436 502 33,000  Level Indianapolis Center
Sun 09:59:07 AM 37.8119 -84.1550 173° South 437 503 33,000  Level Indianapolis Center
Sun 10:00:09 AM 37.6922 -84.1372 173° South 435 501 33,000  Level Indianapolis Center
Sun 10:01:10 AM 37.5722 -84.1211 174° South 435 501 33,000  Level Indianapolis Center
Sun 10:02:12 AM 37.4322 -84.1011 174° South 435 501 33,000  Level Indianapolis Center
Sun 10:03:14 AM 37.3119 -84.0839 174° South 435 501 33,000  Level Indianapolis Center
Sun 10:04:15 AM 37.1925 -84.0672 174° South 435 501 33,000  Level Indianapolis Center
Sun 10:05:17 AM 37.0731 -84.0514 174° South 434 499 33,000  Level Indianapolis Center
Sun 10:06:18 AM 36.9544 -84.0344 173° South 433 498 33,000  Level Indianapolis Center
Sun 10:07:20 AM 36.8339 -84.0183 174° South 433 498 33,000  Level Indianapolis Center
Sun 10:08:22 AM 36.6944 -83.9992 174° South 433 498 33,000  Level Indianapolis Center
Sun 10:09:23 AM 36.5742 -83.9839 174° South 433 498 33,000  Level Indianapolis Center
Sun 10:10:25 AM 36.4497 -83.9658 173° South 434 499 33,000  Level Indianapolis Center
Sun 10:11:27 AM 36.3272 -83.9497 174° South 435 501 33,000  Level Indianapolis Center
Sun 10:12:28 AM 36.2056 -83.9456 178° South 436 502 33,000  Level Indianapolis Center
Sun 10:13:30 AM 36.0917 -83.9694 190° South 420 483 33,000  Level Indianapolis Center
Sun 10:14:34 AM 35.9747 -83.9950 190° South 422 486 33,000  Level Atlanta Center
Sun 10:15:34 AM 35.8600 -84.0158 188° South 417 480 33,000  Level Atlanta Center
Sun 10:16:34 AM 35.7494 -84.0389 190° South 417 480 33,000  Level Atlanta Center
Sun 10:17:34 AM 35.6369 -84.0617 189° South 412 474 33,000  Level Atlanta Center
Sun 10:18:34 AM 35.5242 -84.0822 188° South 412 474 33,000  Level Atlanta Center
Sun 10:19:34 AM 35.4136 -84.1050 190° South 412 474 33,000  Level Atlanta Center
Sun 10:20:34 AM 35.3008 -84.1278 189° South 412 474 33,000  Level Atlanta Center
Sun 10:21:34 AM 35.1903 -84.1481 189° South 407 468 33,000  Level Atlanta Center
Sun 10:22:34 AM 35.0778 -84.1683 188° South 412 474 33,000  Level Atlanta Center
Sun 10:23:34 AM 34.9650 -84.1858 187° South 412 474 33,000  Level Atlanta Center
Sun 10:24:34 AM 34.8439 -84.2083 189° South 412 474 33,000  Level Atlanta Center
Sun 10:25:34 AM 34.7333 -84.2308 189° South 402 463 33,000  Level Atlanta Center
Sun 10:26:34 AM 34.6289 -84.2483 188° South 413 475 33,000  Level Atlanta Center
Sun 10:27:34 AM 34.5183 -84.2708 190° South 413 475 33,000  Level Atlanta Center
Sun 10:28:34 AM 34.4075 -84.2906 188° South 404 465 33,000  Level Atlanta Center
Sun 10:29:34 AM 34.2969 -84.3128 189° South 410 472 33,000  Level Atlanta Center
Sun 10:30:34 AM 34.1864 -84.3325 188° South 410 472 33,000  Level Atlanta Center
Sun 10:31:34 AM 34.0714 -84.3572 190° South 410 472 33,000  Level Atlanta Center
Sun 10:32:34 AM 33.9650 -84.3769 189° South 410 472 33,000  Level Atlanta Center
Sun 10:33:34 AM 33.8500 -84.3964 188° South 411 473 33,000  Level Atlanta Center
Sun 10:34:34 AM 33.7372 -84.4161 188° South 411 473 33,000  Level Atlanta Center
Sun 10:35:34 AM 33.6267 -84.4356 188° South 406 467 33,000  Level Atlanta Center
Sun 10:36:34 AM 33.5097 -84.4375 181° South 413 475 33,000  Level Atlanta Center
Sun 10:37:34 AM 33.3950 -84.4344 179° South 418 481 33,000  Level Atlanta Center
Sun 10:38:34 AM 33.2761 -84.4314 179° South 423 487 33,000  Level Atlanta Center
Sun 10:39:34 AM 33.1611 -84.4283 179° South 417 480 33,000  Level Atlanta Center
Sun 10:40:34 AM 33.0442 -84.4253 179° South 417 480 33,000  Level Atlanta Center
Sun 10:41:34 AM 32.9275 -84.4225 179° South 422 486 33,000  Level Atlanta Center
Sun 10:42:34 AM 32.8022 -84.4244 181° South 413 475 33,000  Level Atlanta Center
Sun 10:43:34 AM 32.7000 -84.4142 175° South 413 475 33,000  Level Atlanta Center
Sun 10:44:34 AM 32.5831 -84.4086 178° South 418 481 33,000  Level Atlanta Center
Sun 10:45:34 AM 32.4642 -84.3858 171° South 423 487 33,000  Level Atlanta Center
Sun 10:47:19 AM 32.2458 -84.3442 171° South 425 489 33,000  Level Jacksonville Center
Sun 10:48:19 AM 32.1272 -84.3228 171° South 430 495 33,000  Level Jacksonville Center
Sun 10:49:19 AM 32.0167 -84.3014 171° South 437 503 33,000  Level Jacksonville Center
Sun 10:50:19 AM 31.8981 -84.2800 171° South 437 503 33,000  Level Jacksonville Center
Sun 10:51:19 AM 31.7792 -84.2564 170° South 437 503 33,000  Level Jacksonville Center
Sun 10:52:19 AM 31.6583 -84.2375 172° South 442 509 33,000  Level Jacksonville Center
Sun 10:53:19 AM 31.5394 -84.2139 170° South 442 509 33,000  Level Jacksonville Center
Sun 10:54:19 AM 31.4186 -84.1925 171° South 448 516 33,000  Level Jacksonville Center
Sun 10:55:19 AM 31.2978 -84.1689 171° South 448 516 33,000  Level Jacksonville Center
Sun 10:56:19 AM 31.1792 -84.1456 170° South 443 510 33,000  Level Jacksonville Center
Sun 10:57:19 AM 31.0603 -84.1222 170° South 443 510 33,000  Level Jacksonville Center
Sun 10:58:19 AM 30.9414 -84.1011 171° South 443 510 33,000  Level Jacksonville Center
Sun 10:59:19 AM 30.8247 -84.0803 171° South 438 504 33,000  Level Jacksonville Center
Sun 11:00:19 AM 30.7058 -84.0572 171° South 438 504 33,000  Level Jacksonville Center
Sun 11:01:19 AM 30.5872 -84.0339 170° South 433 498 33,000 -50 Level Jacksonville Center
Sun 11:02:19 AM 30.4600 -84.0108 171° South 428 493 32,900 -50 Descending Jacksonville Center
Sun 11:03:19 AM 30.3411 -83.9900 171° South 428 493 32,900  Level Jacksonville Center
Sun 11:04:19 AM 30.2222 -83.9672 171° South 428 493 32,900  Level Jacksonville Center
Sun 11:05:19 AM 30.1036 -83.9442 170° South 428 493 32,900  Level Jacksonville Center
Sun 11:06:19 AM 29.9867 -83.9236 171° South 428 493 32,900  Level Jacksonville Center
Sun 11:07:19 AM 29.8722 -83.9033 171° South 428 493 32,900  Level Jacksonville Center
Sun 11:08:19 AM 29.7556 -83.8542 160° South 428 493 32,900  Level Jacksonville Center
Sun 11:09:19 AM 29.6456 -83.7817 150° Southeast 439 505 32,900 -50 Level Jacksonville Center
Sun 11:10:19 AM 29.5353 -83.7114 151° Southeast 445 512 32,800 -1,000 Descending Jacksonville Center
Sun 11:11:19 AM 29.4272 -83.6364 149° Southeast 456 525 30,900 -1,950 Descending Jacksonville Center
Sun 11:12:19 AM 29.3211 -83.5714 152° Southeast 450 518 28,900 -2,000 Descending Jacksonville Center
Sun 11:13:19 AM 29.2192 -83.5064 151° Southeast 433 498 26,900 -1,850 Descending Jacksonville Center
Sun 11:14:19 AM 29.1192 -83.4392 150° Southeast 421 484 25,200 -1,500 Descending Jacksonville Center
Sun 11:15:19 AM 29.0214 -83.3794 152° Southeast 408 470 23,900 -650 Descending Jacksonville Center
Sun 11:16:19 AM 28.9214 -83.3172 151° Southeast 408 470 23,900  Level Jacksonville Center
Sun 11:17:19 AM 28.8236 -83.2553 151° Southeast 408 470 23,900 -2,039 Level Jacksonville Center
Sun 11:19:42 AM 28.5667 -83.1000 152° Southeast 441 507 17,000 -2,985 Descending Tampa TRACON
Sun 11:20:42 AM 28.4667 -83.0333 150° Southeast 434 499 13,800 -2,826 Descending Tampa TRACON
Sun 11:21:43 AM 28.3667 -82.9833 156° South 393 452 11,300 -1,736 Descending Tampa TRACON
Sun 11:22:43 AM 28.2667 -82.9500 164° South 352 405 10,300 -958 Descending Tampa TRACON
Sun 11:23:42 AM 28.1833 -82.9167 161° South 298 343 9,400 -1,381 Descending Tampa TRACON
Sun 11:24:36 AM 28.1167 -82.9000 168° South 278 320 7,700 -1,934 Descending Tampa TRACON
Sun 11:25:43 AM 28.0333 -82.8833 170° South 280 322 5,500 -1,714 Descending Tampa TRACON
Sun 11:26:42 AM 27.9667 -82.8667 168° South 268 308 4,100 -1,412 Descending Tampa TRACON
Sun 11:27:42 AM 27.9000 -82.8333 156° South 252 290 2,700 -1,250 Descending Tampa TRACON
Sun 11:28:42 AM 27.8667 -82.7667 119° Southeast 239 275 1,600 -744 Descending Tampa TRACON
Sun 11:29:43 AM 27.8500 -82.7000 106° East 165 190 1,200 -545 Descending Tampa TRACON
Sun 11:30:43 AM 27.8833 -82.6833 24° Northeast 133 153 500 -700 Descending Tampa TRACON

Login

Don't have an account? Register now (free) for customized features, flight alerts, and more!